Time;durP1;ratioP1;P1;durP2;ratioP2;P2;SDS_P1;SDS_P2;PMS_P1;PMS_P2;Temp;Humidity;BMP_temperature;BMP_pressure;BME280_temperature;BME280_humidity;BME280_pressure;Samples;Min_cycle;Max_cycle;Signal;HPM_P1;HPM_P2
2020/12/06 00:00:25;;;;;;;88.05;52.95;;;7.40;99.90;;;;;;5052442;28;20021;-82
2020/12/06 00:02:52;;;;;;;86.90;48.63;;;7.40;99.90;;;;;;5052434;28;20428;-82
2020/12/06 00:05:18;;;;;;;79.70;47.88;;;7.30;99.90;;;;;;5052497;28;20463;-83
2020/12/06 00:07:44;;;;;;;78.65;45.42;;;7.30;99.90;;;;;;5052609;28;20100;-86
2020/12/06 00:10:17;;;;;;;80.78;46.13;;;7.40;99.90;;;;;;5052040;28;20021;-80
2020/12/06 00:12:44;;;;;;;76.72;44.67;;;7.20;99.90;;;;;;5052087;28;20070;-84
2020/12/06 00:15:10;;;;;;;74.20;43.25;;;7.40;99.90;;;;;;5060994;28;20036;-82
2020/12/06 00:17:36;;;;;;;70.05;42.05;;;7.40;99.90;;;;;;5072097;28;20028;-82
2020/12/06 00:20:04;;;;;;;76.55;44.53;;;7.20;99.90;;;;;;5072307;28;20027;-85
2020/12/06 00:22:29;;;;;;;73.05;45.38;;;7.20;99.90;;;;;;5072170;28;20035;-84
2020/12/06 00:24:55;;;;;;;80.63;45.70;;;7.20;99.90;;;;;;5071657;28;20618;-84
2020/12/06 00:27:21;;;;;;;81.82;48.00;;;7.10;99.90;;;;;;5072007;28;20028;-83
2020/12/06 00:29:47;;;;;;;81.05;48.05;;;7.10;99.90;;;;;;5072290;28;20020;-85
2020/12/06 00:32:12;;;;;;;82.43;48.33;;;6.70;99.90;;;;;;5071793;28;20024;-82
2020/12/06 00:34:38;;;;;;;88.28;49.83;;;6.90;99.90;;;;;;5072043;28;20023;-84
2020/12/06 00:37:04;;;;;;;93.10;51.88;;;7.00;99.90;;;;;;5072193;28;20056;-83
2020/12/06 00:39:30;;;;;;;88.30;51.17;;;7.00;99.90;;;;;;5071949;28;20099;-84
2020/12/06 00:41:56;;;;;;;82.75;49.58;;;7.10;99.90;;;;;;5053984;28;20020;-86
2020/12/06 00:44:21;;;;;;;85.53;50.33;;;7.00;99.90;;;;;;5072063;28;20032;-82
2020/12/06 00:46:47;;;;;;;84.13;50.53;;;6.70;99.90;;;;;;5072168;28;20083;-81
2020/12/06 00:49:13;;;;;;;90.95;49.67;;;6.60;99.90;;;;;;5071832;28;20016;-84
2020/12/06 00:51:39;;;;;;;93.93;50.92;;;6.80;99.90;;;;;;5068957;28;20027;-81
2020/12/06 00:54:04;;;;;;;92.72;51.05;;;7.00;99.90;;;;;;5052245;28;20021;-84
2020/12/06 00:56:30;;;;;;;94.00;52.83;;;7.00;99.90;;;;;;5051656;28;20109;-83
2020/12/06 00:58:56;;;;;;;90.03;53.85;;;7.00;99.90;;;;;;5051510;28;20025;-86
2020/12/06 01:01:22;;;;;;;105.55;59.03;;;6.90;99.90;;;;;;5051525;28;20036;-84
2020/12/06 01:03:48;;;;;;;107.82;63.08;;;6.70;99.90;;;;;;5051235;28;20074;-85
2020/12/06 01:06:18;;;;;;;101.35;59.15;;;6.40;99.90;;;;;;5051577;28;20029;-86
2020/12/06 01:08:45;;;;;;;97.65;57.70;;;6.60;99.90;;;;;;5051710;28;20052;-82
2020/12/06 01:11:15;;;;;;;95.20;56.72;;;6.50;99.90;;;;;;5051539;28;20033;-83
2020/12/06 01:13:41;;;;;;;100.28;54.63;;;6.60;99.90;;;;;;5051618;28;20067;-86
2020/12/06 01:16:07;;;;;;;110.82;57.13;;;6.60;99.90;;;;;;5051424;28;20057;-84
2020/12/06 01:18:33;;;;;;;115.80;64.97;;;6.70;99.90;;;;;;5051351;28;20028;-84
2020/12/06 01:20:59;;;;;;;117.20;65.50;;;6.60;99.90;;;;;;5051633;28;20036;-86
2020/12/06 01:23:25;;;;;;;120.50;67.13;;;6.40;99.90;;;;;;5051544;28;20495;-83
2020/12/06 01:25:50;;;;;;;119.55;66.95;;;5.50;99.90;;;;;;5051061;28;20041;-82
2020/12/06 01:28:17;;;;;;;123.15;68.38;;;5.50;99.90;;;;;;5051988;28;20033;-85
2020/12/06 01:30:42;;;;;;;105.88;63.38;;;5.40;99.90;;;;;;5052179;28;20083;-86
2020/12/06 01:35:34;;;;;;;113.47;66.25;;;6.20;99.90;;;;;;5907969;23;20107;-83
2020/12/06 01:38:00;;;;;;;120.85;67.75;;;6.10;99.90;;;;;;5031612;28;20026;-84
2020/12/06 01:40:29;;;;;;;111.45;63.63;;;5.80;99.90;;;;;;5031081;28;20022;-83
2020/12/06 01:42:55;;;;;;;106.47;60.88;;;6.30;99.90;;;;;;5013295;28;20060;-85
2020/12/06 01:45:21;;;;;;;93.97;56.15;;;6.40;99.90;;;;;;5031540;28;20033;-82
2020/12/06 01:47:47;;;;;;;99.35;57.15;;;6.60;99.90;;;;;;5032350;28;20397;-84
2020/12/06 01:50:14;;;;;;;96.43;54.60;;;6.60;99.90;;;;;;5013537;28;20026;-84
2020/12/06 01:52:41;;;;;;;91.50;53.15;;;6.40;99.90;;;;;;5014322;28;20029;-85
2020/12/06 01:55:12;;;;;;;85.47;46.97;;;6.50;99.90;;;;;;5014346;28;20099;-86
2020/12/06 01:57:39;;;;;;;94.50;51.08;;;6.60;99.90;;;;;;5014082;28;20684;-87
2020/12/06 02:00:06;;;;;;;85.78;50.35;;;6.30;99.90;;;;;;5013445;28;20036;-86
2020/12/06 02:02:33;;;;;;;85.60;51.05;;;6.40;99.90;;;;;;5013733;28;20021;-85
2020/12/06 02:04:59;;;;;;;88.78;52.63;;;6.50;99.90;;;;;;5013661;28;20045;-86
2020/12/06 02:07:28;;;;;;;91.10;52.88;;;6.70;99.90;;;;;;5031514;28;20022;-82
2020/12/06 02:09:54;;;;;;;89.05;51.63;;;6.70;99.90;;;;;;5030859;28;20466;-83
2020/12/06 02:12:20;;;;;;;88.30;50.55;;;6.60;99.90;;;;;;5032048;28;20033;-85
2020/12/06 02:14:46;;;;;;;83.68;49.20;;;6.60;99.90;;;;;;5035118;28;20044;-80
2020/12/06 02:17:11;;;;;;;75.80;46.00;;;6.60;99.90;;;;;;5035267;28;20083;-88
2020/12/06 02:19:38;;;;;;;89.75;50.50;;;6.60;99.90;;;;;;5017780;28;20507;-82
2020/12/06 02:22:04;;;;;;;85.65;48.47;;;6.70;99.90;;;;;;5017128;28;20392;-83
2020/12/06 02:24:30;;;;;;;78.55;45.53;;;6.50;99.90;;;;;;5034803;28;20480;-83
2020/12/06 02:26:55;;;;;;;91.22;48.35;;;6.40;99.90;;;;;;5035186;28;20033;-87
2020/12/06 02:29:21;;;;;;;81.55;46.92;;;5.40;99.90;;;;;;5018057;28;20029;-87
2020/12/06 02:31:47;;;;;;;82.47;46.53;;;5.60;99.90;;;;;;5035392;28;20030;-86
2020/12/06 02:34:14;;;;;;;79.82;44.65;;;5.40;99.90;;;;;;5054756;28;20021;-84
2020/12/06 02:36:40;;;;;;;75.95;44.28;;;5.00;99.90;;;;;;5055330;28;20049;-87
2020/12/06 02:39:11;;;;;;;84.97;46.78;;;4.90;99.90;;;;;;5037504;28;20074;-87
2020/12/06 02:41:42;;;;;;;77.53;44.60;;;4.90;99.90;;;;;;5037012;28;20025;-85
2020/12/06 02:44:11;;;;;;;79.60;45.45;;;5.30;99.90;;;;;;5054393;28;20046;-84
2020/12/06 02:46:38;;;;;;;74.07;44.78;;;5.50;99.90;;;;;;5054569;28;20100;-85
2020/12/06 02:49:05;;;;;;;86.43;46.25;;;5.90;99.90;;;;;;5036648;28;20472;-89
2020/12/06 02:51:31;;;;;;;79.28;43.80;;;6.00;99.90;;;;;;5055422;28;20086;-84
2020/12/06 02:53:57;;;;;;;81.72;44.70;;;6.10;99.90;;;;;;5054300;28;20380;-84
2020/12/06 02:56:23;;;;;;;77.28;44.55;;;6.10;99.90;;;;;;5036468;28;20025;-82
2020/12/06 02:58:49;;;;;;;71.80;41.50;;;6.10;99.90;;;;;;5036591;28;20028;-87
2020/12/06 03:01:15;;;;;;;74.60;42.70;;;5.80;99.90;;;;;;5054304;28;20044;-86
2020/12/06 03:03:41;;;;;;;73.35;41.00;;;5.70;99.90;;;;;;5036056;28;20029;-84
2020/12/06 03:06:07;;;;;;;71.40;40.78;;;6.00;99.90;;;;;;5036961;28;20074;-86
2020/12/06 03:08:34;;;;;;;76.28;42.08;;;6.20;99.90;;;;;;5036816;28;20361;-88
2020/12/06 03:10:59;;;;;;;71.93;41.83;;;6.20;99.90;;;;;;5054670;28;20395;-86
2020/12/06 03:13:25;;;;;;;82.53;44.00;;;5.60;99.90;;;;;;5054437;28;20105;-84
2020/12/06 03:15:51;;;;;;;77.72;41.28;;;5.20;99.90;;;;;;5036416;28;20040;-84
2020/12/06 03:18:17;;;;;;;70.07;41.78;;;4.90;99.90;;;;;;5036543;28;20025;-88
2020/12/06 03:20:42;;;;;;;69.25;39.00;;;5.00;99.90;;;;;;5036619;28;20037;-84
2020/12/06 03:23:08;;;;;;;66.43;37.80;;;5.00;99.90;;;;;;5035750;28;20052;-85
2020/12/06 03:25:35;;;;;;;64.90;37.67;;;4.90;99.90;;;;;;5035436;28;20036;-85
2020/12/06 03:28:01;;;;;;;59.33;33.97;;;4.80;99.90;;;;;;5053736;28;20411;-85
2020/12/06 03:30:26;;;;;;;58.13;33.78;;;4.60;99.90;;;;;;5053887;28;20476;-85
2020/12/06 03:32:52;;;;;;;59.80;34.50;;;4.40;99.90;;;;;;5053750;28;20021;-85
2020/12/06 03:35:18;;;;;;;60.97;37.25;;;4.50;99.90;;;;;;5053341;28;20071;-85
2020/12/06 03:37:44;;;;;;;61.13;36.35;;;4.90;99.90;;;;;;5053679;28;20071;-84
2020/12/06 03:40:11;;;;;;;61.22;35.83;;;5.30;99.90;;;;;;5053495;28;20468;-84
2020/12/06 03:42:37;;;;;;;61.40;36.85;;;5.50;99.90;;;;;;5053376;28;20024;-85
2020/12/06 03:45:04;;;;;;;64.43;37.88;;;5.70;99.90;;;;;;5035531;28;20036;-86
2020/12/06 03:47:30;;;;;;;68.72;39.45;;;5.80;99.90;;;;;;5053638;28;20079;-82
2020/12/06 03:49:55;;;;;;;63.28;39.22;;;5.90;99.90;;;;;;5053616;28;20024;-87
2020/12/06 03:52:21;;;;;;;63.92;40.78;;;5.90;99.90;;;;;;5054311;28;20036;-86
2020/12/06 03:54:47;;;;;;;62.08;38.17;;;5.90;99.90;;;;;;5036158;28;20453;-84
2020/12/06 03:57:13;;;;;;;69.50;40.22;;;5.90;99.90;;;;;;5053397;28;20064;-87
2020/12/06 03:59:38;;;;;;;67.22;39.78;;;5.90;99.90;;;;;;5035017;28;20071;-87
2020/12/06 04:02:04;;;;;;;66.25;40.50;;;5.90;99.90;;;;;;5052845;28;20501;-85
2020/12/06 04:04:30;;;;;;;70.22;41.08;;;5.90;99.90;;;;;;5035019;28;20082;-84
2020/12/06 04:06:56;;;;;;;75.82;42.50;;;5.90;99.90;;;;;;5052912;28;20068;-87
2020/12/06 04:09:21;;;;;;;66.22;40.78;;;5.70;99.90;;;;;;5053310;28;20032;-83
2020/12/06 04:11:47;;;;;;;67.45;41.15;;;5.80;99.90;;;;;;5053179;28;20055;-84
2020/12/06 04:14:13;;;;;;;74.53;40.95;;;5.70;99.90;;;;;;5053403;28;20025;-86
2020/12/06 04:16:39;;;;;;;74.38;40.22;;;5.60;99.90;;;;;;5035481;28;20029;-86
2020/12/06 04:19:05;;;;;;;68.82;40.80;;;5.70;99.90;;;;;;5052586;28;20380;-82
2020/12/06 04:21:30;;;;;;;74.00;41.53;;;5.80;99.90;;;;;;5034831;28;20091;-83
2020/12/06 04:23:56;;;;;;;79.43;43.67;;;5.80;99.90;;;;;;5034802;28;20021;-86
2020/12/06 04:26:22;;;;;;;74.53;42.78;;;5.70;99.90;;;;;;5034900;28;20392;-84
2020/12/06 04:28:48;;;;;;;81.78;45.53;;;5.80;99.90;;;;;;5034558;28;20480;-84
2020/12/06 04:31:14;;;;;;;82.80;49.20;;;5.80;99.90;;;;;;5052482;28;20029;-82
2020/12/06 04:33:40;;;;;;;72.13;43.92;;;5.70;99.90;;;;;;5052126;28;20013;-83
2020/12/06 04:36:05;;;;;;;72.30;43.20;;;5.50;99.90;;;;;;5051695;28;20520;-82
2020/12/06 04:38:31;;;;;;;76.00;45.63;;;5.40;99.90;;;;;;5051915;28;20029;-83
2020/12/06 04:40:58;;;;;;;80.60;46.17;;;5.40;99.90;;;;;;5034317;28;20116;-85
2020/12/06 04:43:26;;;;;;;71.80;44.28;;;5.50;99.90;;;;;;5052158;28;20147;-84
2020/12/06 04:45:52;;;;;;;78.10;46.08;;;4.70;99.90;;;;;;5034196;28;20487;-85
2020/12/06 04:48:35;;;;;;;76.65;42.75;;;4.80;99.90;;;;;;5033866;28;20021;-81
2020/12/06 04:51:04;;;;;;;76.90;45.78;;;5.20;99.90;;;;;;5034091;28;20107;-81
2020/12/06 04:53:39;;;;;;;86.53;47.10;;;5.10;99.90;;;;;;5051664;28;20048;-86
2020/12/06 04:56:12;;;;;;;78.40;46.08;;;4.90;99.90;;;;;;5034861;28;20079;-83
2020/12/06 04:58:42;;;;;;;78.38;46.63;;;5.20;99.90;;;;;;5052240;28;20056;-85
2020/12/06 05:01:08;;;;;;;75.78;42.97;;;5.30;99.90;;;;;;5052150;28;20349;-85
2020/12/06 05:03:36;;;;;;;66.05;38.63;;;5.00;99.90;;;;;;5034003;28;20087;-84
2020/12/06 05:06:04;;;;;;;55.72;35.45;;;4.90;99.90;;;;;;5052536;28;20048;-86
2020/12/06 05:08:35;;;;;;;59.72;36.63;;;5.00;99.90;;;;;;5034116;28;20029;-86
2020/12/06 05:11:01;;;;;;;56.50;36.70;;;5.20;99.90;;;;;;5034513;28;20040;-81
2020/12/06 05:13:26;;;;;;;55.78;35.42;;;5.20;99.90;;;;;;5034369;28;20037;-83
2020/12/06 05:15:54;;;;;;;77.47;42.80;;;5.30;99.90;;;;;;5034352;28;20033;-86
2020/12/06 05:18:22;;;;;;;75.82;47.13;;;5.30;99.90;;;;;;5034403;28;20027;-86
2020/12/06 05:20:47;;;;;;;82.70;47.40;;;5.30;99.90;;;;;;5052117;28;20029;-83
2020/12/06 05:23:13;;;;;;;80.03;46.40;;;5.30;99.90;;;;;;5051652;28;20107;-84
2020/12/06 05:25:39;;;;;;;74.32;43.85;;;5.20;99.90;;;;;;5034199;28;20037;-84
2020/12/06 05:28:05;;;;;;;66.10;41.35;;;5.00;99.90;;;;;;5033497;28;20098;-82
2020/12/06 05:30:31;;;;;;;63.92;38.53;;;4.80;99.90;;;;;;5033890;28;20036;-84
2020/12/06 05:35:32;;;;;;;59.85;36.85;;;5.10;99.90;;;;;;5265905;23;20045;-83
2020/12/06 05:37:58;;;;;;;74.53;43.65;;;5.20;99.90;;;;;;5033999;28;20036;-85
2020/12/06 05:40:23;;;;;;;81.13;47.75;;;5.30;99.90;;;;;;5052048;28;20017;-83
2020/12/06 05:42:49;;;;;;;81.00;48.25;;;5.10;99.90;;;;;;5051588;28;20033;-83
2020/12/06 05:45:19;;;;;;;78.65;45.78;;;5.10;99.90;;;;;;5051686;28;20033;-84
2020/12/06 05:47:46;;;;;;;76.93;47.67;;;5.20;99.90;;;;;;5054440;28;20021;-86
2020/12/06 05:50:11;;;;;;;85.18;48.70;;;5.30;99.90;;;;;;5038805;28;20037;-86
2020/12/06 05:52:37;;;;;;;81.90;48.03;;;5.20;99.90;;;;;;5056613;28;20387;-84
2020/12/06 05:55:04;;;;;;;85.43;48.03;;;5.20;99.90;;;;;;5037357;28;20033;-81
2020/12/06 05:57:33;;;;;;;84.80;48.00;;;5.30;99.90;;;;;;5055666;28;20061;-84
2020/12/06 06:00:00;;;;;;;85.10;48.90;;;5.20;99.90;;;;;;5055293;28;20124;-83
2020/12/06 06:02:27;;;;;;;90.22;48.88;;;5.00;99.90;;;;;;5055213;28;20083;-84
2020/12/06 06:05:02;;;;;;;92.22;50.33;;;5.10;99.90;;;;;;5036932;28;20492;-85
2020/12/06 06:07:30;;;;;;;81.38;49.55;;;5.10;99.90;;;;;;5037352;28;20017;-84
2020/12/06 06:10:03;;;;;;;81.68;47.80;;;5.10;99.90;;;;;;5037307;28;20021;-82
2020/12/06 06:12:34;;;;;;;74.35;46.88;;;5.10;99.90;;;;;;5037656;28;20029;-82
2020/12/06 06:15:02;;;;;;;79.85;48.72;;;5.00;99.90;;;;;;5054965;28;20086;-82
2020/12/06 06:17:30;;;;;;;78.38;45.60;;;5.10;99.90;;;;;;5036084;28;20029;-83
2020/12/06 06:19:57;;;;;;;68.22;42.17;;;5.10;99.90;;;;;;5036732;28;20067;-84
2020/12/06 06:22:32;;;;;;;66.22;41.88;;;5.10;99.90;;;;;;5055034;28;20045;-84
2020/12/06 06:25:00;;;;;;;73.57;42.63;;;5.20;99.90;;;;;;5036977;28;20060;-83
2020/12/06 06:27:35;;;;;;;77.10;46.63;;;5.20;99.90;;;;;;5036662;28;20599;-83
2020/12/06 06:30:04;;;;;;;74.28;44.95;;;4.90;99.90;;;;;;5036329;28;20033;-83
2020/12/06 06:32:32;;;;;;;78.43;46.72;;;4.90;99.90;;;;;;5036485;28;20096;-81
2020/12/06 06:34:59;;;;;;;74.75;45.33;;;5.10;99.90;;;;;;5036507;28;20060;-84
2020/12/06 06:37:31;;;;;;;75.05;44.00;;;5.10;99.90;;;;;;5036704;28;20028;-83
2020/12/06 06:39:59;;;;;;;77.30;47.20;;;5.20;99.90;;;;;;5036570;28;20036;-83
2020/12/06 06:47:38;;;;;;;79.57;46.90;;;4.90;99.90;;;;;;5679505;23;20044;-84
2020/12/06 06:50:05;;;;;;;74.20;45.25;;;4.70;99.90;;;;;;5035792;28;20021;-86
2020/12/06 06:52:32;;;;;;;66.00;43.10;;;4.80;99.90;;;;;;5036192;28;20108;-86
2020/12/06 06:54:58;;;;;;;73.25;44.33;;;5.10;99.90;;;;;;5054242;28;20021;-83
2020/12/06 06:57:29;;;;;;;75.85;44.65;;;5.10;99.90;;;;;;5054163;28;20024;-84
2020/12/06 06:59:56;;;;;;;71.15;43.67;;;5.20;99.90;;;;;;5036047;28;20452;-82
2020/12/06 07:02:41;;;;;;;77.13;43.97;;;4.20;99.90;;;;;;5054749;28;20039;-85
2020/12/06 07:05:12;;;;;;;75.75;46.40;;;4.20;99.90;;;;;;5036365;28;20463;-85
2020/12/06 07:07:41;;;;;;;72.28;45.63;;;3.70;99.90;;;;;;5036650;28;20027;-86
2020/12/06 07:10:08;;;;;;;80.53;46.35;;;3.90;99.90;;;;;;5054467;28;20095;-89
2020/12/06 07:12:47;;;;;;;74.28;46.35;;;3.90;99.90;;;;;;5036954;28;20037;-83
2020/12/06 07:15:14;;;;;;;74.85;44.85;;;4.30;99.90;;;;;;5036479;28;20036;-87
2020/12/06 07:17:41;;;;;;;78.57;46.10;;;4.20;99.90;;;;;;5053903;28;20096;-86
2020/12/06 07:20:09;;;;;;;73.90;43.05;;;4.30;99.90;;;;;;5036508;28;20021;-87
2020/12/06 07:22:36;;;;;;;72.13;44.05;;;3.90;99.90;;;;;;5053696;28;20025;-86
2020/12/06 07:25:04;;;;;;;68.85;45.60;;;4.00;99.90;;;;;;5036138;28;20040;-88
2020/12/06 07:27:31;;;;;;;56.78;36.88;;;4.50;99.90;;;;;;5035958;28;20100;-87
2020/12/06 07:29:57;;;;;;;53.95;34.03;;;5.00;99.90;;;;;;5054370;28;20419;-90
2020/12/06 07:32:23;;;;;;;43.40;27.38;;;4.80;99.90;;;;;;5079844;23;20545;-88
2020/12/06 07:34:49;;;;;;;40.33;27.05;;;4.70;99.90;;;;;;5036649;28;20052;-84
2020/12/06 07:37:15;;;;;;;39.00;24.10;;;4.80;99.90;;;;;;5054683;28;20371;-84
2020/12/06 07:39:46;;;;;;;45.30;26.00;;;5.10;99.90;;;;;;5054292;28;20013;-83
2020/12/06 07:42:25;;;;;;;45.03;25.02;;;5.20;99.90;;;;;;5035707;28;20021;-83
2020/12/06 07:44:58;;;;;;;52.65;26.90;;;4.90;99.90;;;;;;5035627;28;20055;-88
2020/12/06 07:47:26;;;;;;;49.50;26.83;;;5.00;99.90;;;;;;5036199;28;20111;-81
2020/12/06 07:49:52;;;;;;;49.03;29.60;;;5.00;99.90;;;;;;5036116;28;20051;-85
2020/12/06 07:52:29;;;;;;;47.42;27.42;;;4.80;99.90;;;;;;5053779;28;20097;-85
2020/12/06 07:55:01;;;;;;;53.28;29.27;;;5.20;99.90;;;;;;5035654;28;20013;-86
2020/12/06 07:57:47;;;;;;;45.67;28.38;;;5.30;99.90;;;;;;5053364;28;20467;-92
2020/12/06 08:00:30;;;;;;;75.43;38.30;;;5.40;99.90;;;;;;5037307;28;20016;-90
2020/12/06 08:02:59;;;;;;;64.30;33.47;;;5.40;99.90;;;;;;5020338;28;20031;-91
2020/12/06 08:09:03;;;;;;;62.83;33.35;;;6.60;99.90;;;;;;5043617;28;20047;-87
2020/12/06 08:19:17;;;;;;;48.88;28.50;;;7.00;99.90;;;;;;5047010;28;20090;-82
2020/12/06 08:21:44;;;;;;;50.33;27.98;;;6.60;99.90;;;;;;5008938;28;20056;-83
2020/12/06 08:24:23;;;;;;;47.80;29.33;;;7.00;99.90;;;;;;5031247;28;20108;-85
2020/12/06 08:26:50;;;;;;;65.68;32.42;;;7.50;99.90;;;;;;5015488;28;20048;-85
2020/12/06 08:29:16;;;;;;;57.55;32.10;;;7.90;99.90;;;;;;5041798;28;20021;-84
2020/12/06 08:31:42;;;;;;;59.08;31.95;;;8.30;99.90;;;;;;5034045;28;20044;-81
2020/12/06 08:34:09;;;;;;;65.50;32.40;;;8.40;99.90;;;;;;5033684;28;20029;-84
2020/12/06 08:36:35;;;;;;;58.22;33.00;;;8.70;99.90;;;;;;5033940;28;20055;-83
2020/12/06 08:39:01;;;;;;;57.78;30.65;;;9.00;99.90;;;;;;5034457;28;20024;-87
2020/12/06 08:41:27;;;;;;;53.15;28.02;;;9.50;99.90;;;;;;5034553;28;20476;-85
2020/12/06 08:43:55;;;;;;;54.58;26.50;;;9.90;99.90;;;;;;5034913;28;20472;-84
2020/12/06 08:46:23;;;;;;;47.13;25.67;;;10.00;99.90;;;;;;5053185;28;20043;-87
2020/12/06 08:48:53;;;;;;;43.22;25.17;;;9.00;99.90;;;;;;5035981;28;20105;-89
2020/12/06 08:51:33;;;;;;;40.10;25.17;;;9.70;99.90;;;;;;5052630;28;20029;-81
2020/12/06 08:54:02;;;;;;;46.28;26.45;;;10.50;99.90;;;;;;5034715;28;20152;-89
2020/12/06 08:56:35;;;;;;;44.90;26.45;;;11.20;99.90;;;;;;5033836;28;20033;-88
2020/12/06 08:59:16;;;;;;;45.40;27.40;;;11.70;99.90;;;;;;5052284;28;20437;-90
2020/12/06 09:01:52;;;;;;;42.15;26.70;;;11.80;99.90;;;;;;5052448;28;20028;-85
2020/12/06 09:04:19;;;;;;;42.90;25.25;;;12.00;99.90;;;;;;5051934;28;20029;-85
2020/12/06 09:06:46;;;;;;;45.08;24.42;;;11.80;99.90;;;;;;5051740;28;20025;-87
2020/12/06 09:09:12;;;;;;;42.78;27.25;;;11.50;99.90;;;;;;5052437;28;20025;-90
2020/12/06 09:11:38;;;;;;;44.15;26.58;;;11.10;99.90;;;;;;5034444;28;20029;-84
2020/12/06 09:14:04;;;;;;;43.05;26.48;;;11.30;99.90;;;;;;5033958;28;20028;-87
2020/12/06 09:16:30;;;;;;;44.63;24.70;;;11.60;99.90;;;;;;5051751;28;20021;-87
2020/12/06 09:18:56;;;;;;;49.50;26.60;;;12.20;99.90;;;;;;5034316;28;20031;-81
2020/12/06 09:21:22;;;;;;;46.40;25.08;;;12.70;99.90;;;;;;5052964;28;20029;-89
2020/12/06 09:23:48;;;;;;;47.03;27.70;;;12.50;98.50;;;;;;5054809;28;20052;-78
2020/12/06 09:26:14;;;;;;;51.95;32.75;;;12.30;99.30;;;;;;5021152;28;20037;-86
2020/12/06 09:28:40;;;;;;;49.30;30.67;;;10.70;99.90;;;;;;5035593;28;20120;-85
2020/12/06 09:31:06;;;;;;;71.97;42.03;;;11.30;99.90;;;;;;5028124;28;20044;-81
2020/12/06 09:33:32;;;;;;;117.30;66.05;;;12.40;99.90;;;;;;5037485;28;20395;-81
2020/12/06 09:35:58;;;;;;;79.22;48.40;;;12.80;99.90;;;;;;5037984;28;20048;-84
2020/12/06 09:38:26;;;;;;;59.25;33.85;;;12.50;99.90;;;;;;5055684;28;20419;-83
2020/12/06 09:40:51;;;;;;;51.22;31.77;;;11.70;99.90;;;;;;5055864;28;20096;-83
2020/12/06 09:43:17;;;;;;;55.17;31.80;;;11.60;99.90;;;;;;5037769;28;20025;-85
2020/12/06 09:45:43;;;;;;;55.13;32.70;;;11.60;99.90;;;;;;5055521;28;20041;-84
2020/12/06 09:48:10;;;;;;;55.13;32.60;;;11.70;99.90;;;;;;5038046;28;20032;-88
2020/12/06 09:50:36;;;;;;;49.50;31.23;;;11.60;99.90;;;;;;5038319;28;20122;-84
2020/12/06 09:53:03;;;;;;;51.20;31.85;;;11.90;99.90;;;;;;5038165;28;20033;-88
2020/12/06 09:55:29;;;;;;;53.72;32.10;;;12.10;99.90;;;;;;5055315;28;20029;-87
2020/12/06 09:57:54;;;;;;;81.68;49.83;;;12.00;99.90;;;;;;5037290;28;20028;-87
2020/12/06 10:00:20;;;;;;;192.15;109.07;;;12.80;99.90;;;;;;5036899;28;20020;-84
2020/12/06 10:02:46;;;;;;;72.70;41.72;;;12.90;99.90;;;;;;5037204;28;20025;-86
2020/12/06 10:05:14;;;;;;;56.35;34.88;;;12.50;99.90;;;;;;5055687;28;20029;-87
2020/12/06 10:07:42;;;;;;;73.90;33.42;;;12.40;99.90;;;;;;5037901;28;20033;-87
2020/12/06 10:10:09;;;;;;;55.63;30.63;;;12.70;99.90;;;;;;5038403;28;20017;-90
2020/12/06 10:12:35;;;;;;;51.58;30.35;;;12.80;99.90;;;;;;5037795;28;20468;-87
2020/12/06 10:15:04;;;;;;;64.88;33.42;;;12.70;99.90;;;;;;5056118;28;20029;-85
2020/12/06 10:21:03;;;;;;;47.60;29.42;;;12.60;99.90;;;;;;5055958;28;20503;-86
2020/12/06 10:23:32;;;;;;;54.22;30.50;;;12.60;99.90;;;;;;5055352;28;20468;-85
2020/12/06 10:25:58;;;;;;;44.22;26.98;;;12.80;99.90;;;;;;5054761;28;20032;-88
2020/12/06 10:28:24;;;;;;;44.33;27.08;;;13.10;99.90;;;;;;5036621;28;20025;-88
2020/12/06 10:30:50;;;;;;;38.47;25.90;;;13.60;99.90;;;;;;5037536;28;20350;-88
2020/12/06 10:33:15;;;;;;;40.92;25.17;;;14.20;98.10;;;;;;5036174;28;20053;-89
2020/12/06 10:35:44;;;;;;;39.38;23.23;;;14.10;98.00;;;;;;5037117;28;20140;-87
2020/12/06 10:38:24;;;;;;;41.50;26.38;;;14.00;98.60;;;;;;5036419;28;20044;-83
2020/12/06 10:40:50;;;;;;;;;;;12.80;99.90;;;;;;5018265;28;20372;-85
2020/12/06 10:43:16;;;;;;;37.58;23.90;;;11.60;99.90;;;;;;5035222;28;19913;-87
2020/12/06 10:45:41;;;;;;;45.20;25.80;;;11.60;99.90;;;;;;5018404;28;20029;-89
2020/12/06 10:48:10;;;;;;;43.45;28.35;;;11.70;99.90;;;;;;5034642;28;20029;-85
2020/12/06 10:50:36;;;;;;;50.25;29.85;;;11.90;99.90;;;;;;5018459;28;20068;-88
2020/12/06 10:53:02;;;;;;;49.60;31.50;;;11.60;99.90;;;;;;5035100;28;20034;-91
2020/12/06 10:55:28;;;;;;;47.83;30.10;;;11.10;99.90;;;;;;5034354;28;20079;-87
2020/12/06 10:57:54;;;;;;;45.13;28.00;;;11.20;99.90;;;;;;5034944;28;20083;-90
2020/12/06 11:00:25;;;;;;;44.35;29.35;;;11.20;99.90;;;;;;5017661;28;20049;-88
2020/12/06 11:02:50;;;;;;;;;;;11.00;99.90;;;;;;5017665;28;20026;-87
2020/12/06 11:05:16;;;;;;;45.45;25.77;;;11.00;99.90;;;;;;5017657;28;19940;-89
2020/12/06 11:07:42;;;;;;;43.15;25.83;;;11.40;99.90;;;;;;5017627;28;20038;-86
2020/12/06 11:10:08;;;;;;;37.85;24.17;;;12.00;99.90;;;;;;5021803;28;20033;-89
2020/12/06 11:12:34;;;;;;;42.70;25.80;;;12.10;99.90;;;;;;5037561;28;20380;-86
2020/12/06 11:15:00;;;;;;;44.45;25.85;;;11.50;99.90;;;;;;5036176;28;20025;-87
2020/12/06 11:17:30;;;;;;;40.28;24.95;;;11.10;99.90;;;;;;5054511;28;20037;-88
2020/12/06 11:19:56;;;;;;;34.47;23.05;;;11.20;99.90;;;;;;5054926;28;20070;-85
2020/12/06 11:22:22;;;;;;;39.55;22.67;;;11.20;99.90;;;;;;5048813;28;20044;-84
2020/12/06 11:24:48;;;;;;;45.88;26.02;;;10.90;99.90;;;;;;5044176;28;20041;-82
2020/12/06 11:27:14;;;;;;;44.38;26.67;;;10.90;99.90;;;;;;5028411;28;20127;-82
2020/12/06 11:29:39;;;;;;;35.85;23.08;;;11.10;99.90;;;;;;5050025;28;20025;-85
2020/12/06 11:32:05;;;;;;;34.28;20.55;;;11.20;99.90;;;;;;5034293;28;20049;-83
2020/12/06 11:34:31;;;;;;;33.47;19.52;;;11.30;99.90;;;;;;5053428;28;20028;-80
2020/12/06 11:36:58;;;;;;;35.13;19.30;;;10.80;99.90;;;;;;5021883;28;20041;-88
2020/12/06 11:39:23;;;;;;;31.27;18.92;;;10.60;99.90;;;;;;5036650;28;20418;-81
2020/12/06 11:41:53;;;;;;;33.67;18.75;;;10.70;99.90;;;;;;5045724;28;20037;-83
2020/12/06 11:44:19;;;;;;;34.95;19.90;;;11.00;99.90;;;;;;5049721;28;20740;-87
2020/12/06 11:46:46;;;;;;;30.30;18.48;;;11.20;99.90;;;;;;5035325;28;20041;-84
2020/12/06 11:49:12;;;;;;;30.15;18.98;;;11.50;99.90;;;;;;5050113;28;20029;-81
2020/12/06 11:54:42;;;;;;;38.85;24.55;;;12.70;99.90;;;;;;5261731;23;20516;-82
2020/12/06 11:57:08;;;;;;;55.25;35.90;;;12.80;99.90;;;;;;5044619;28;20031;-79
2020/12/06 11:59:34;;;;;;;38.70;23.40;;;12.20;99.90;;;;;;5050470;28;20056;-81
2020/12/06 12:02:00;;;;;;;41.85;24.75;;;12.40;99.90;;;;;;5033321;28;20094;-82
2020/12/06 12:04:26;;;;;;;83.65;52.58;;;13.10;99.90;;;;;;5046046;28;20063;-82
2020/12/06 12:06:51;;;;;;;42.78;28.02;;;13.70;99.90;;;;;;5052118;28;20017;-81
2020/12/06 12:09:17;;;;;;;30.20;18.40;;;13.90;99.90;;;;;;5034296;28;20518;-81
2020/12/06 12:11:43;;;;;;;35.70;21.10;;;14.40;99.90;;;;;;5034143;28;20032;-83
2020/12/06 12:14:09;;;;;;;28.00;17.88;;;14.80;99.90;;;;;;5033725;28;20021;-83
2020/12/06 12:16:34;;;;;;;36.55;18.50;;;14.70;98.40;;;;;;5052291;28;20032;-85
2020/12/06 12:19:06;;;;;;;25.10;17.45;;;15.40;98.70;;;;;;5033959;28;20017;-81
2020/12/06 12:21:33;;;;;;;29.40;17.25;;;16.40;97.10;;;;;;5051695;28;20460;-79
2020/12/06 12:23:59;;;;;;;28.73;18.02;;;16.30;93.50;;;;;;5034424;28;20052;-81
2020/12/06 12:26:25;;;;;;;26.08;17.75;;;15.30;95.60;;;;;;5051699;28;20040;-83
2020/12/06 12:28:51;;;;;;;26.80;17.48;;;14.10;96.80;;;;;;5051949;28;20057;-78
2020/12/06 12:31:17;;;;;;;25.35;16.85;;;13.20;99.50;;;;;;5051485;28;20054;-79
2020/12/06 12:33:43;;;;;;;28.73;17.65;;;12.60;99.90;;;;;;5033836;28;20124;-82
2020/12/06 12:36:32;;;;;;;29.00;17.95;;;13.50;99.90;;;;;;5033577;28;20110;-82
2020/12/06 12:38:58;;;;;;;29.63;17.98;;;12.60;99.90;;;;;;5034656;28;20029;-82
2020/12/06 12:41:31;;;;;;;29.65;17.52;;;12.70;99.90;;;;;;5032766;28;20040;-84
2020/12/06 12:43:57;;;;;;;31.17;18.00;;;12.80;99.90;;;;;;5044862;28;20017;-82
2020/12/06 12:46:23;;;;;;;36.47;19.15;;;12.80;99.90;;;;;;5050557;28;20032;-82
2020/12/06 12:48:49;;;;;;;28.15;15.80;;;13.10;99.90;;;;;;5051241;28;20384;-83
2020/12/06 12:51:16;;;;;;;25.88;17.33;;;12.40;99.90;;;;;;5051272;28;20032;-82
2020/12/06 12:53:43;;;;;;;26.13;17.05;;;13.30;99.90;;;;;;5013827;28;20543;-82
2020/12/06 12:56:09;;;;;;;30.02;17.33;;;13.60;99.60;;;;;;5020499;28;20112;-81
2020/12/06 12:58:35;;;;;;;25.20;15.35;;;13.60;99.90;;;;;;5050873;28;20033;-80
2020/12/06 13:01:01;;;;;;;27.33;16.63;;;14.10;98.50;;;;;;5050619;28;20021;-80